Time;durP1;ratioP1;P1;durP2;ratioP2;P2;SDS_P1;SDS_P2;PMS_P1;PMS_P2;Temp;Humidity;BMP_temperature;BMP_pressure;BME280_temperature;BME280_humidity;BME280_pressure;Samples;Min_cycle;Max_cycle;Signal;HPM_P1;HPM_P2
2021/07/31 00:01:13;;;;;;;1.23;0.80;;;20.40;55.30;;;;;;1490703;39;20038;-60
2021/07/31 00:02:34;;;;;;;1.10;0.70;;;20.40;55.30;;;;;;1490956;39;20040;-59
2021/07/31 00:03:55;;;;;;;3.25;1.10;;;20.50;55.50;;;;;;1490869;39;20024;-60
2021/07/31 00:05:16;;;;;;;2.83;0.88;;;20.40;55.50;;;;;;1491450;39;20043;-60
2021/07/31 00:06:37;;;;;;;2.47;0.93;;;20.40;55.50;;;;;;1491275;39;20389;-59
2021/07/31 00:07:58;;;;;;;1.55;0.82;;;20.50;55.60;;;;;;1490814;39;20042;-60
2021/07/31 00:09:19;;;;;;;2.13;0.88;;;20.50;55.60;;;;;;1489081;39;20125;-59
2021/07/31 00:10:40;;;;;;;3.45;0.90;;;20.50;55.70;;;;;;1485941;39;20016;-61
2021/07/31 00:12:00;;;;;;;1.40;0.88;;;20.50;55.60;;;;;;1483618;40;20458;-60
2021/07/31 00:13:21;;;;;;;2.63;1.20;;;20.50;55.60;;;;;;1485611;39;20044;-59
2021/07/31 00:14:42;;;;;;;2.42;0.80;;;20.50;55.60;;;;;;1487897;40;20032;-60
2021/07/31 00:16:04;;;;;;;2.72;1.17;;;20.50;55.70;;;;;;1486629;40;20094;-60
2021/07/31 00:17:25;;;;;;;3.22;1.23;;;20.50;55.80;;;;;;1486934;40;20074;-60
2021/07/31 00:18:45;;;;;;;1.58;0.90;;;20.50;55.80;;;;;;1486649;39;20028;-60
2021/07/31 00:20:07;;;;;;;4.25;1.00;;;20.50;55.80;;;;;;1486682;40;20028;-60
2021/07/31 00:21:28;;;;;;;1.98;1.00;;;20.50;55.80;;;;;;1488054;40;20414;-59
2021/07/31 00:22:48;;;;;;;2.40;1.20;;;20.50;55.80;;;;;;1486534;39;20043;-60
2021/07/31 00:24:09;;;;;;;2.28;1.10;;;20.50;55.80;;;;;;1487561;40;20411;-60
2021/07/31 00:25:31;;;;;;;1.38;1.00;;;20.50;55.80;;;;;;1487627;40;20028;-60
2021/07/31 00:26:52;;;;;;;4.55;1.15;;;20.50;55.80;;;;;;1485960;39;20028;-60
2021/07/31 00:28:13;;;;;;;3.70;1.13;;;20.50;55.80;;;;;;1487487;39;20016;-60
2021/07/31 00:29:34;;;;;;;3.65;1.10;;;20.60;55.90;;;;;;1487222;39;20090;-59
2021/07/31 00:30:54;;;;;;;2.67;1.20;;;20.60;55.90;;;;;;1480694;40;20033;-59
2021/07/31 00:32:15;;;;;;;1.63;1.00;;;20.60;55.90;;;;;;1483428;40;20025;-60
2021/07/31 00:33:36;;;;;;;1.80;1.17;;;20.50;55.80;;;;;;1487281;39;20031;-60
2021/07/31 00:34:57;;;;;;;2.08;1.40;;;20.50;55.90;;;;;;1487809;39;20349;-60
2021/07/31 00:36:18;;;;;;;1.70;0.90;;;20.60;56.00;;;;;;1487179;39;20028;-59
2021/07/31 00:37:39;;;;;;;4.68;1.50;;;20.60;55.90;;;;;;1486531;40;20076;-60
2021/07/31 00:39:00;;;;;;;1.58;1.10;;;20.60;55.90;;;;;;1482877;40;20028;-60
2021/07/31 00:40:21;;;;;;;2.40;1.23;;;20.60;56.50;;;;;;1485560;40;20068;-58
2021/07/31 00:41:42;;;;;;;3.67;1.60;;;20.60;56.00;;;;;;1485900;40;20032;-60
2021/07/31 00:43:07;;;;;;;2.08;1.00;;;20.60;56.00;;;;;;1485443;40;20060;-60
2021/07/31 00:44:28;;;;;;;3.20;1.30;;;20.60;55.90;;;;;;1487532;40;20027;-60
2021/07/31 00:45:49;;;;;;;3.72;1.20;;;20.60;56.00;;;;;;1487696;39;20128;-60
2021/07/31 00:47:10;;;;;;;1.63;1.00;;;20.60;55.90;;;;;;1482740;40;20036;-60
2021/07/31 00:48:32;;;;;;;2.60;1.00;;;20.60;56.00;;;;;;1485545;40;20032;-60
2021/07/31 00:49:53;;;;;;;2.20;1.20;;;20.60;55.90;;;;;;1487281;39;20036;-60
2021/07/31 00:51:16;;;;;;;3.80;1.10;;;20.60;56.00;;;;;;1483367;40;20051;-60
2021/07/31 00:52:39;;;;;;;1.25;1.05;;;20.60;56.50;;;;;;1485336;40;20032;-60
2021/07/31 00:54:00;;;;;;;2.67;1.77;;;20.60;56.10;;;;;;1481695;40;20472;-60
2021/07/31 00:55:24;;;;;;;1.85;1.40;;;20.60;56.10;;;;;;1481071;40;20064;-60
2021/07/31 00:56:45;;;;;;;0.93;0.80;;;20.60;56.20;;;;;;1485419;40;20349;-60
2021/07/31 00:58:07;;;;;;;2.38;1.00;;;20.60;56.20;;;;;;1486151;40;20376;-61
2021/07/31 00:59:28;;;;;;;3.78;1.30;;;20.60;56.20;;;;;;1487127;40;20032;-57
2021/07/31 01:00:49;;;;;;;1.50;1.15;;;20.60;56.20;;;;;;1487445;39;20031;-60
2021/07/31 01:02:10;;;;;;;3.80;1.27;;;20.60;56.20;;;;;;1486839;40;20028;-61
2021/07/31 01:03:31;;;;;;;4.93;1.38;;;20.60;56.20;;;;;;1486367;40;20031;-60
2021/07/31 01:04:52;;;;;;;2.60;1.00;;;20.60;56.20;;;;;;1484848;40;20028;-58
2021/07/31 01:06:13;;;;;;;1.90;1.30;;;20.60;56.20;;;;;;1487482;40;20024;-60
2021/07/31 01:07:35;;;;;;;1.70;1.02;;;20.60;56.20;;;;;;1488137;39;20036;-60
2021/07/31 01:08:56;;;;;;;2.15;1.13;;;20.60;56.70;;;;;;1487481;39;20040;-60
2021/07/31 01:10:18;;;;;;;3.42;1.08;;;20.60;56.30;;;;;;1490605;39;20087;-60
2021/07/31 01:11:39;;;;;;;3.55;1.00;;;20.60;56.40;;;;;;1491205;39;20023;-59
2021/07/31 01:13:02;;;;;;;1.90;1.13;;;20.60;56.40;;;;;;1490702;39;20051;-60
2021/07/31 01:14:22;;;;;;;2.50;1.13;;;20.60;56.40;;;;;;1492621;39;20310;-60
2021/07/31 01:16:04;;;;;;;3.13;1.20;;;20.60;56.40;;;;;;1491974;39;20801;-60
2021/07/31 01:17:25;;;;;;;2.55;1.25;;;20.60;56.50;;;;;;1489941;39;20030;-60
2021/07/31 01:18:46;;;;;;;2.03;1.30;;;20.60;56.50;;;;;;1491163;39;20128;-61
2021/07/31 01:20:08;;;;;;;3.65;1.27;;;20.60;56.50;;;;;;1490838;39;20022;-60
2021/07/31 01:21:42;;;;;;;2.38;1.13;;;20.60;56.70;;;;;;1491482;39;20043;-61
2021/07/31 01:23:03;;;;;;;1.75;1.00;;;20.50;56.70;;;;;;1490768;39;20334;-60
2021/07/31 01:24:24;;;;;;;2.10;0.93;;;20.50;56.70;;;;;;1491542;39;20045;-60
2021/07/31 01:25:45;;;;;;;4.32;1.25;;;20.50;56.70;;;;;;1491105;39;20028;-61
2021/07/31 01:27:06;;;;;;;2.75;1.20;;;20.50;56.70;;;;;;1490743;39;20379;-58
2021/07/31 01:28:27;;;;;;;3.28;1.33;;;20.50;56.80;;;;;;1492449;39;20032;-60
2021/07/31 01:29:48;;;;;;;4.22;1.00;;;20.50;56.80;;;;;;1491154;39;20027;-61
2021/07/31 01:31:09;;;;;;;2.28;1.05;;;20.50;56.80;;;;;;1490959;39;20067;-60
2021/07/31 01:32:30;;;;;;;1.75;1.10;;;20.50;56.80;;;;;;1490474;39;20061;-59
2021/07/31 01:33:50;;;;;;;1.88;1.27;;;20.50;56.80;;;;;;1490120;39;20028;-61
2021/07/31 01:35:11;;;;;;;4.43;1.38;;;20.50;56.80;;;;;;1491980;39;20027;-59
2021/07/31 01:36:32;;;;;;;3.10;1.40;;;20.50;56.90;;;;;;1487518;39;20020;-60
2021/07/31 01:37:53;;;;;;;2.03;1.10;;;20.50;56.90;;;;;;1490595;39;20031;-60
2021/07/31 01:39:14;;;;;;;3.03;1.27;;;20.50;56.80;;;;;;1491148;39;20028;-61
2021/07/31 01:40:35;;;;;;;2.45;1.23;;;20.50;56.90;;;;;;1491080;39;20130;-61
2021/07/31 01:41:56;;;;;;;2.85;1.15;;;20.60;57.00;;;;;;1490477;39;20042;-60
2021/07/31 01:43:17;;;;;;;3.53;1.05;;;20.50;57.00;;;;;;1492126;39;20031;-59
2021/07/31 01:44:38;;;;;;;3.50;1.27;;;20.50;57.00;;;;;;1490746;39;20027;-59
2021/07/31 01:45:59;;;;;;;3.58;1.35;;;20.50;57.00;;;;;;1490873;39;20040;-60
2021/07/31 01:47:20;;;;;;;4.70;1.40;;;20.50;56.90;;;;;;1490826;39;20020;-60
2021/07/31 01:48:41;;;;;;;1.75;1.00;;;20.50;57.00;;;;;;1491291;39;20039;-60
2021/07/31 01:50:03;;;;;;;4.75;1.60;;;20.50;57.00;;;;;;1489804;39;20043;-60
2021/07/31 01:51:24;;;;;;;4.22;1.50;;;20.50;57.00;;;;;;1492506;39;20020;-60
2021/07/31 01:52:45;;;;;;;2.05;1.05;;;20.50;57.00;;;;;;1491327;39;20038;-60
2021/07/31 01:54:06;;;;;;;3.33;1.40;;;20.50;57.00;;;;;;1488604;39;20296;-60
2021/07/31 01:55:27;;;;;;;4.03;1.10;;;20.50;57.00;;;;;;1490886;39;20027;-60
2021/07/31 01:56:48;;;;;;;3.33;1.20;;;20.50;56.90;;;;;;1491330;39;20024;-60
2021/07/31 01:58:09;;;;;;;3.58;1.13;;;20.50;56.90;;;;;;1491785;39;20024;-60
2021/07/31 01:59:30;;;;;;;1.20;0.93;;;20.50;56.90;;;;;;1491683;39;20030;-60
2021/07/31 02:00:55;;;;;;;2.55;1.30;;;20.50;56.80;;;;;;1490919;39;20293;-60
2021/07/31 02:02:16;;;;;;;5.53;1.13;;;20.50;56.90;;;;;;1491784;39;20111;-60
2021/07/31 02:03:37;;;;;;;4.25;1.27;;;20.50;56.90;;;;;;1492106;39;20036;-59
2021/07/31 02:04:58;;;;;;;1.90;1.00;;;20.50;56.90;;;;;;1492301;39;20086;-60
2021/07/31 02:06:19;;;;;;;3.40;1.20;;;20.40;56.80;;;;;;1490719;39;20357;-60
2021/07/31 02:07:40;;;;;;;2.30;1.23;;;20.40;56.80;;;;;;1491597;39;20263;-59
2021/07/31 02:09:01;;;;;;;2.30;1.10;;;20.40;56.80;;;;;;1490554;39;20035;-60
2021/07/31 02:10:22;;;;;;;2.65;1.20;;;20.40;56.90;;;;;;1491945;39;20085;-60
2021/07/31 02:11:43;;;;;;;2.55;1.20;;;20.40;57.00;;;;;;1491205;39;20283;-60
2021/07/31 02:13:04;;;;;;;3.92;1.20;;;20.40;57.00;;;;;;1490163;39;20039;-60
2021/07/31 02:14:25;;;;;;;3.05;1.30;;;20.40;57.10;;;;;;1490990;39;20035;-60
2021/07/31 02:15:46;;;;;;;2.72;1.20;;;20.40;57.20;;;;;;1491792;39;20110;-60
2021/07/31 02:17:07;;;;;;;2.25;0.98;;;20.40;57.20;;;;;;1491972;39;20039;-60
2021/07/31 02:18:27;;;;;;;2.53;1.50;;;20.30;57.20;;;;;;1492106;39;20238;-60
2021/07/31 02:19:48;;;;;;;3.10;1.13;;;20.40;57.30;;;;;;1491556;39;20081;-60
2021/07/31 02:21:11;;;;;;;2.28;1.23;;;20.30;57.20;;;;;;1490453;39;20168;-60
2021/07/31 02:22:31;;;;;;;2.45;1.17;;;20.30;57.30;;;;;;1491518;39;20027;-60
2021/07/31 02:23:52;;;;;;;3.47;1.40;;;20.30;57.30;;;;;;1490136;39;20039;-61
2021/07/31 02:25:13;;;;;;;3.80;1.23;;;20.30;57.30;;;;;;1492579;39;20034;-60
2021/07/31 02:26:34;;;;;;;5.15;1.63;;;20.30;57.30;;;;;;1491528;39;20031;-60
2021/07/31 02:27:55;;;;;;;3.20;1.40;;;20.30;57.40;;;;;;1491316;39;20055;-60
2021/07/31 02:29:16;;;;;;;4.55;1.70;;;20.30;57.40;;;;;;1491305;39;20345;-60
2021/07/31 02:30:37;;;;;;;3.03;1.02;;;20.30;57.40;;;;;;1492299;39;20033;-60
2021/07/31 02:31:58;;;;;;;2.10;0.98;;;20.30;57.40;;;;;;1491109;39;20032;-60
2021/07/31 02:33:19;;;;;;;2.13;1.42;;;20.40;57.40;;;;;;1491500;39;20038;-60
2021/07/31 02:34:40;;;;;;;2.47;1.35;;;20.30;57.40;;;;;;1490938;39;20031;-60
2021/07/31 02:36:03;;;;;;;3.75;1.55;;;20.30;57.40;;;;;;1492033;39;20043;-60
2021/07/31 02:37:24;;;;;;;3.38;1.20;;;20.40;57.40;;;;;;1492501;39;20020;-60
2021/07/31 02:38:45;;;;;;;2.33;1.30;;;20.40;57.40;;;;;;1491669;39;20294;-60
2021/07/31 02:40:07;;;;;;;2.10;1.45;;;20.30;57.50;;;;;;1491736;39;20042;-60
2021/07/31 02:41:27;;;;;;;3.53;1.50;;;20.40;57.50;;;;;;1491386;39;20024;-60
2021/07/31 02:42:48;;;;;;;3.65;1.30;;;20.40;57.40;;;;;;1491572;39;20028;-60
2021/07/31 02:44:09;;;;;;;2.28;1.23;;;20.40;57.40;;;;;;1490412;39;20020;-60
2021/07/31 02:45:30;;;;;;;2.80;1.27;;;20.40;57.40;;;;;;1490286;39;20036;-60
2021/07/31 02:46:51;;;;;;;2.22;1.45;;;20.40;57.40;;;;;;1490364;39;20062;-60
2021/07/31 02:48:12;;;;;;;2.42;1.20;;;20.40;57.40;;;;;;1492671;39;20108;-60
2021/07/31 02:49:33;;;;;;;4.05;1.52;;;20.40;57.40;;;;;;1492881;39;20043;-59
2021/07/31 02:51:04;;;;;;;3.45;2.00;;;20.30;57.30;;;;;;1490388;39;20475;-60
2021/07/31 02:52:25;;;;;;;6.15;1.20;;;20.30;57.30;;;;;;1491948;39;20035;-60
2021/07/31 02:53:46;;;;;;;2.47;1.35;;;20.40;57.30;;;;;;1491434;39;20043;-60
2021/07/31 02:55:07;;;;;;;3.95;1.45;;;20.40;57.30;;;;;;1490708;39;20020;-60
2021/07/31 02:56:28;;;;;;;4.00;1.27;;;20.40;57.90;;;;;;1492589;39;20467;-60
2021/07/31 02:57:49;;;;;;;3.47;1.48;;;20.40;57.40;;;;;;1490724;39;20073;-60
2021/07/31 02:59:10;;;;;;;2.40;1.10;;;20.30;57.40;;;;;;1492795;39;20023;-60
2021/07/31 03:00:31;;;;;;;2.80;1.88;;;20.40;57.40;;;;;;1492421;39;20028;-60
2021/07/31 03:01:52;;;;;;;3.47;1.45;;;20.40;57.50;;;;;;1492929;39;20051;-60
2021/07/31 03:03:13;;;;;;;2.38;1.45;;;20.40;57.40;;;;;;1491547;39;20035;-60
2021/07/31 03:04:34;;;;;;;2.38;1.30;;;20.30;57.30;;;;;;1490341;39;20103;-60
2021/07/31 03:05:56;;;;;;;3.78;1.60;;;20.40;57.30;;;;;;1487023;39;20032;-60
2021/07/31 03:07:17;;;;;;;4.10;1.50;;;20.30;57.30;;;;;;1490967;39;20028;-60
2021/07/31 03:08:38;;;;;;;2.72;1.38;;;20.30;57.80;;;;;;1490756;39;20028;-59
2021/07/31 03:09:59;;;;;;;2.05;1.40;;;20.30;57.30;;;;;;1490834;39;20039;-60
2021/07/31 03:11:22;;;;;;;6.65;1.75;;;20.30;57.40;;;;;;1491519;39;20046;-60
2021/07/31 03:12:42;;;;;;;2.00;1.42;;;20.30;57.40;;;;;;1490700;39;20146;-60
2021/07/31 03:14:03;;;;;;;3.95;1.50;;;20.30;57.40;;;;;;1490904;39;20058;-60
2021/07/31 03:15:24;;;;;;;2.70;1.58;;;20.30;57.40;;;;;;1489930;39;20021;-60
2021/07/31 03:16:45;;;;;;;4.45;1.55;;;20.30;57.50;;;;;;1491968;39;20063;-60
2021/07/31 03:18:06;;;;;;;3.92;1.35;;;20.30;57.50;;;;;;1491251;39;20378;-60
2021/07/31 03:19:27;;;;;;;2.92;1.48;;;20.30;57.50;;;;;;1492012;39;20060;-60
2021/07/31 03:20:50;;;;;;;3.53;1.60;;;20.30;57.50;;;;;;1492261;39;20370;-61
2021/07/31 03:22:10;;;;;;;3.75;1.77;;;20.30;57.60;;;;;;1490902;39;20040;-60
2021/07/31 03:23:31;;;;;;;2.25;1.20;;;20.30;57.60;;;;;;1492775;39;20031;-61
2021/07/31 03:24:52;;;;;;;3.63;1.30;;;20.30;57.60;;;;;;1490958;39;20032;-60
2021/07/31 03:26:13;;;;;;;3.03;1.67;;;20.30;57.70;;;;;;1491847;39;20604;-60
2021/07/31 03:27:34;;;;;;;2.33;1.83;;;20.30;57.70;;;;;;1492331;39;20341;-60
2021/07/31 03:28:55;;;;;;;2.85;1.70;;;20.20;57.70;;;;;;1492619;39;20043;-60
2021/07/31 03:30:16;;;;;;;1.48;1.10;;;20.20;57.70;;;;;;1492193;39;20019;-60
2021/07/31 03:31:37;;;;;;;2.63;1.60;;;20.20;57.70;;;;;;1487695;39;20439;-60
2021/07/31 03:32:58;;;;;;;2.72;1.50;;;20.20;57.70;;;;;;1489219;39;20132;-60
2021/07/31 03:34:21;;;;;;;3.15;1.67;;;20.20;58.30;;;;;;1490501;39;20024;-60
2021/07/31 03:35:43;;;;;;;2.67;1.40;;;20.20;57.80;;;;;;1491516;39;20034;-60
2021/07/31 03:37:04;;;;;;;2.85;1.50;;;20.20;57.90;;;;;;1491363;39;20036;-60
2021/07/31 03:38:25;;;;;;;3.30;1.42;;;20.20;57.90;;;;;;1490645;39;20028;-60
2021/07/31 03:39:45;;;;;;;2.08;1.27;;;20.20;58.00;;;;;;1491411;39;20036;-60
2021/07/31 03:41:07;;;;;;;2.75;1.77;;;20.20;58.00;;;;;;1491833;39;20116;-59
2021/07/31 03:42:27;;;;;;;2.40;1.40;;;20.20;58.10;;;;;;1492059;39;20024;-60
2021/07/31 03:43:48;;;;;;;4.75;1.35;;;20.20;58.10;;;;;;1490957;39;20091;-60
2021/07/31 03:45:10;;;;;;;2.22;1.38;;;20.20;58.10;;;;;;1491034;39;20032;-60
2021/07/31 03:46:30;;;;;;;3.83;1.40;;;20.20;58.10;;;;;;1492528;39;20090;-59
2021/07/31 03:47:51;;;;;;;4.40;1.85;;;20.10;58.20;;;;;;1491416;39;20272;-60
2021/07/31 03:49:13;;;;;;;2.97;1.63;;;20.10;58.70;;;;;;1491147;39;20046;-60
2021/07/31 03:50:39;;;;;;;1.98;1.33;;;20.10;58.30;;;;;;1491533;39;20032;-60
2021/07/31 03:52:00;;;;;;;4.13;1.90;;;20.10;58.30;;;;;;1491171;39;20074;-60
2021/07/31 03:53:20;;;;;;;5.28;1.50;;;20.10;58.30;;;;;;1491225;39;20026;-60
2021/07/31 03:54:41;;;;;;;3.67;1.48;;;20.10;58.30;;;;;;1492538;39;20120;-60
2021/07/31 03:56:03;;;;;;;3.33;1.60;;;20.10;58.40;;;;;;1490868;39;20031;-60
2021/07/31 03:57:23;;;;;;;2.25;1.35;;;20.10;58.30;;;;;;1492336;39;20024;-60
2021/07/31 03:58:44;;;;;;;3.63;1.63;;;20.10;58.40;;;;;;1491839;39;20030;-60
2021/07/31 04:00:06;;;;;;;3.35;1.45;;;20.10;58.50;;;;;;1491398;39;20027;-60
2021/07/31 04:01:27;;;;;;;3.45;1.52;;;20.10;58.50;;;;;;1491333;39;20031;-60
2021/07/31 04:02:48;;;;;;;3.22;1.67;;;20.00;58.60;;;;;;1491966;39;20015;-60
2021/07/31 04:04:09;;;;;;;3.63;1.67;;;20.00;58.70;;;;;;1491153;39;20112;-60
2021/07/31 04:05:30;;;;;;;3.40;1.70;;;20.00;58.90;;;;;;1490289;39;20028;-60
2021/07/31 04:06:51;;;;;;;4.65;1.88;;;20.00;58.90;;;;;;1491606;39;20031;-60
2021/07/31 04:08:12;;;;;;;2.70;1.77;;;20.00;59.00;;;;;;1492107;39;20271;-59
2021/07/31 04:09:33;;;;;;;5.00;1.73;;;20.00;59.10;;;;;;1491323;39;20044;-60
2021/07/31 04:10:54;;;;;;;2.28;1.20;;;20.00;59.00;;;;;;1490947;39;20032;-60
2021/07/31 04:12:14;;;;;;;2.25;1.42;;;20.00;59.00;;;;;;1491757;39;20020;-59
2021/07/31 04:13:36;;;;;;;2.15;1.45;;;19.90;59.00;;;;;;1490440;39;20337;-59
2021/07/31 04:14:56;;;;;;;2.55;1.60;;;19.90;59.10;;;;;;1490136;39;20034;-60
2021/07/31 04:16:17;;;;;;;2.88;1.70;;;19.90;59.10;;;;;;1491378;39;20031;-60
2021/07/31 04:17:38;;;;;;;4.00;1.85;;;19.90;59.10;;;;;;1491034;39;20027;-60
2021/07/31 04:18:59;;;;;;;6.25;1.52;;;19.90;59.20;;;;;;1492247;39;20035;-60
2021/07/31 04:20:20;;;;;;;3.40;1.70;;;19.90;59.20;;;;;;1491014;39;20039;-60
2021/07/31 04:21:41;;;;;;;1.45;1.35;;;19.90;59.30;;;;;;1490842;39;20036;-60
2021/07/31 04:23:02;;;;;;;1.50;1.40;;;19.90;59.30;;;;;;1492321;39;20040;-60
2021/07/31 04:24:24;;;;;;;3.15;1.50;;;19.90;59.40;;;;;;1491663;39;20224;-60
2021/07/31 04:25:45;;;;;;;4.78;2.00;;;19.90;59.40;;;;;;1490859;39;20070;-59
2021/07/31 04:27:06;;;;;;;3.55;1.77;;;19.90;59.40;;;;;;1489635;39;20040;-59
2021/07/31 04:28:27;;;;;;;4.25;1.40;;;20.00;59.40;;;;;;1490485;39;20024;-60
2021/07/31 04:29:47;;;;;;;2.85;1.60;;;19.90;59.50;;;;;;1491784;39;20435;-60
2021/07/31 04:31:10;;;;;;;3.05;1.60;;;19.90;59.50;;;;;;1491633;39;20116;-60
2021/07/31 04:32:31;;;;;;;2.70;1.58;;;20.00;59.60;;;;;;1491539;39;20238;-60
2021/07/31 04:33:53;;;;;;;4.60;1.75;;;20.00;59.50;;;;;;1491579;39;20052;-59
2021/07/31 04:35:14;;;;;;;1.40;1.30;;;20.00;59.50;;;;;;1491756;39;20033;-61
2021/07/31 04:36:36;;;;;;;1.67;1.50;;;20.00;59.60;;;;;;1490529;39;20467;-60
2021/07/31 04:38:02;;;;;;;2.85;1.67;;;20.00;59.60;;;;;;1490877;39;20423;-60
2021/07/31 04:39:23;;;;;;;2.40;1.83;;;20.00;59.70;;;;;;1491303;39;20019;-60
2021/07/31 04:40:43;;;;;;;3.67;1.70;;;20.00;59.60;;;;;;1488388;39;20094;-60
2021/07/31 04:42:05;;;;;;;3.17;1.70;;;20.00;59.70;;;;;;1489959;39;20053;-61
2021/07/31 04:43:26;;;;;;;3.13;1.50;;;20.00;59.60;;;;;;1489857;39;20105;-60
2021/07/31 04:44:47;;;;;;;2.83;1.75;;;20.00;59.70;;;;;;1490250;39;20036;-60
2021/07/31 04:46:08;;;;;;;2.83;1.77;;;20.00;59.60;;;;;;1492868;39;20038;-60
2021/07/31 04:47:36;;;;;;;4.25;1.63;;;20.00;59.60;;;;;;1492538;39;20015;-60
2021/07/31 04:48:57;;;;;;;3.95;1.63;;;20.00;59.80;;;;;;1490286;39;20346;-56
2021/07/31 04:50:18;;;;;;;3.28;1.60;;;20.00;59.70;;;;;;1490005;39;20020;-58
2021/07/31 04:51:39;;;;;;;4.72;2.17;;;20.00;59.70;;;;;;1491283;39;20342;-58
2021/07/31 04:53:00;;;;;;;2.95;2.05;;;20.00;59.70;;;;;;1490568;39;20030;-55
2021/07/31 04:54:21;;;;;;;3.90;1.80;;;20.00;59.70;;;;;;1490700;39;20027;-57
2021/07/31 04:55:44;;;;;;;2.58;1.65;;;20.00;59.70;;;;;;1491974;39;20036;-57
2021/07/31 04:57:05;;;;;;;1.63;1.50;;;20.00;59.70;;;;;;1492322;39;20288;-58
2021/07/31 04:58:26;;;;;;;3.97;1.83;;;20.00;59.70;;;;;;1491491;39;20028;-56
2021/07/31 04:59:47;;;;;;;2.30;1.90;;;20.00;59.70;;;;;;1491417;39;20392;-56
2021/07/31 05:01:07;;;;;;;2.40;1.40;;;20.00;59.80;;;;;;1486926;39;20123;-56
2021/07/31 05:02:31;;;;;;;3.20;1.90;;;20.00;59.80;;;;;;1490048;39;20064;-56
2021/07/31 05:03:52;;;;;;;3.70;1.90;;;20.00;59.90;;;;;;1491337;39;20489;-56
2021/07/31 05:05:13;;;;;;;2.40;1.60;;;20.00;59.80;;;;;;1490996;39;20040;-56
2021/07/31 05:06:34;;;;;;;4.57;1.85;;;20.00;59.80;;;;;;1489453;39;20035;-55
2021/07/31 05:07:55;;;;;;;2.78;1.58;;;20.00;59.80;;;;;;1490938;39;20028;-54
2021/07/31 05:09:16;;;;;;;3.92;1.95;;;20.00;59.80;;;;;;1491491;39;20043;-56
2021/07/31 05:10:41;;;;;;;3.45;2.00;;;20.00;59.70;;;;;;1491754;39;20288;-55
2021/07/31 05:12:03;;;;;;;3.70;2.00;;;20.00;59.80;;;;;;1492016;39;20268;-55
2021/07/31 05:13:23;;;;;;;3.15;2.10;;;20.00;59.80;;;;;;1491103;39;20307;-56
2021/07/31 05:14:48;;;;;;;2.58;2.00;;;20.00;59.80;;;;;;1490694;39;20027;-56
2021/07/31 05:16:14;;;;;;;5.97;1.98;;;20.00;59.80;;;;;;1491075;39;20269;-55
2021/07/31 05:17:35;;;;;;;3.47;1.70;;;20.00;59.90;;;;;;1486689;40;20028;-57
2021/07/31 05:18:56;;;;;;;2.13;1.67;;;20.00;59.80;;;;;;1488993;39;20458;-56
2021/07/31 05:20:17;;;;;;;3.92;1.73;;;20.00;59.80;;;;;;1491132;39;20026;-55
2021/07/31 05:21:38;;;;;;;4.15;1.63;;;20.00;59.90;;;;;;1489503;39;20521;-54
2021/07/31 05:23:00;;;;;;;1.60;1.50;;;20.00;59.90;;;;;;1490997;39;20051;-55
2021/07/31 05:24:21;;;;;;;4.25;1.85;;;20.00;60.00;;;;;;1490101;39;20067;-55
2021/07/31 05:25:46;;;;;;;4.93;1.95;;;20.00;59.90;;;;;;1490758;39;20063;-55
2021/07/31 05:27:08;;;;;;;3.92;1.70;;;20.00;60.10;;;;;;1485468;39;20412;-54
2021/07/31 05:28:28;;;;;;;2.67;1.85;;;20.00;60.10;;;;;;1488287;39;20036;-54
2021/07/31 05:29:49;;;;;;;2.63;1.65;;;20.00;60.00;;;;;;1491841;39;20541;-55
2021/07/31 05:31:18;;;;;;;2.53;2.10;;;20.00;60.10;;;;;;1491192;39;20257;-54
2021/07/31 05:32:39;;;;;;;1.95;1.42;;;20.00;60.30;;;;;;1492054;39;20019;-55
2021/07/31 05:34:01;;;;;;;3.50;2.08;;;20.00;60.20;;;;;;1487754;39;20027;-56
2021/07/31 05:35:22;;;;;;;3.92;1.83;;;20.00;60.40;;;;;;1487775;39;20367;-54
2021/07/31 05:36:43;;;;;;;3.42;1.90;;;20.00;60.30;;;;;;1492236;39;20038;-55
2021/07/31 05:38:04;;;;;;;1.83;1.60;;;20.00;60.30;;;;;;1492166;39;20035;-55
2021/07/31 05:39:24;;;;;;;2.95;1.95;;;20.00;60.30;;;;;;1490930;39;20404;-54
2021/07/31 05:40:45;;;;;;;1.83;1.65;;;20.00;60.20;;;;;;1491004;39;20028;-56
2021/07/31 05:42:06;;;;;;;5.13;1.52;;;20.00;60.20;;;;;;1492875;39;20027;-53
2021/07/31 05:43:27;;;;;;;2.72;1.60;;;20.00;60.20;;;;;;1491826;39;20124;-54
2021/07/31 05:44:48;;;;;;;2.97;1.85;;;20.00;60.30;;;;;;1492438;39;20374;-55
2021/07/31 05:46:10;;;;;;;3.97;1.90;;;20.10;60.30;;;;;;1492888;39;20047;-56
2021/07/31 05:47:31;;;;;;;2.47;1.75;;;20.10;60.20;;;;;;1491290;39;20063;-56
2021/07/31 05:48:52;;;;;;;3.58;1.70;;;20.10;60.30;;;;;;1490131;39;20042;-54
2021/07/31 05:50:14;;;;;;;2.75;1.60;;;20.10;60.30;;;;;;1492419;39;20028;-54
2021/07/31 05:51:34;;;;;;;4.55;1.90;;;20.10;60.40;;;;;;1491245;39;20487;-55
2021/07/31 05:52:55;;;;;;;4.57;2.00;;;20.10;60.40;;;;;;1491193;39;20027;-54
2021/07/31 05:54:16;;;;;;;3.88;1.77;;;20.10;60.40;;;;;;1491343;39;20093;-55
2021/07/31 05:55:38;;;;;;;4.18;1.88;;;20.10;60.50;;;;;;1490762;39;20067;-54
2021/07/31 05:56:58;;;;;;;4.22;1.70;;;20.10;60.40;;;;;;1492670;39;20043;-55
2021/07/31 05:58:19;;;;;;;2.03;1.83;;;20.10;60.40;;;;;;1491908;39;20023;-55
2021/07/31 05:59:40;;;;;;;2.88;1.60;;;20.10;60.40;;;;;;1490086;39;20035;-51
2021/07/31 06:01:04;;;;;;;4.20;1.67;;;20.10;60.40;;;;;;1491191;39;20035;-55
2021/07/31 06:02:25;;;;;;;3.63;2.03;;;20.20;60.50;;;;;;1492203;39;20048;-55
2021/07/31 06:03:47;;;;;;;4.88;1.90;;;20.20;60.50;;;;;;1491635;39;20398;-54
2021/07/31 06:05:10;;;;;;;3.35;1.67;;;20.20;60.50;;;;;;1491948;39;20031;-56
2021/07/31 06:06:31;;;;;;;3.30;1.98;;;20.20;60.40;;;;;;1492814;39;20034;-56
2021/07/31 06:07:52;;;;;;;2.72;1.90;;;20.20;60.30;;;;;;1490574;39;20036;-54
2021/07/31 06:09:13;;;;;;;3.38;1.83;;;20.20;60.40;;;;;;1491405;39;20060;-54
2021/07/31 06:10:34;;;;;;;2.35;1.30;;;20.20;60.40;;;;;;1490729;39;20039;-55
2021/07/31 06:11:55;;;;;;;4.05;1.95;;;20.20;60.50;;;;;;1492662;39;20034;-56
2021/07/31 06:13:16;;;;;;;3.28;2.10;;;20.20;60.60;;;;;;1491071;39;20020;-55
2021/07/31 06:14:39;;;;;;;3.58;1.70;;;20.30;60.70;;;;;;1488893;39;20032;-56
2021/07/31 06:16:00;;;;;;;4.85;1.80;;;20.20;60.70;;;;;;1492883;39;20027;-57
2021/07/31 06:17:21;;;;;;;3.50;1.50;;;20.30;60.60;;;;;;1491855;39;20031;-56
2021/07/31 06:18:42;;;;;;;2.00;1.70;;;20.30;60.50;;;;;;1489350;39;20048;-53
2021/07/31 06:20:04;;;;;;;3.65;1.33;;;20.30;60.20;;;;;;1492347;39;20037;-55
2021/07/31 06:21:25;;;;;;;4.93;1.80;;;20.30;60.10;;;;;;1490964;39;20031;-55
2021/07/31 06:22:46;;;;;;;4.25;1.70;;;20.30;60.10;;;;;;1491740;39;20120;-58
2021/07/31 06:24:07;;;;;;;2.45;1.52;;;20.30;60.10;;;;;;1490279;39;20071;-54
2021/07/31 06:25:28;;;;;;;2.58;1.60;;;20.30;60.10;;;;;;1494201;39;20024;-55
2021/07/31 06:26:49;;;;;;;3.65;2.03;;;20.30;60.20;;;;;;1491376;39;20028;-56
2021/07/31 06:28:10;;;;;;;2.78;1.65;;;20.20;60.20;;;;;;1488740;39;20030;-54
2021/07/31 06:29:31;;;;;;;2.40;1.67;;;20.30;60.30;;;;;;1491930;39;20046;-56
2021/07/31 06:30:52;;;;;;;2.78;1.40;;;20.20;60.30;;;;;;1489206;39;20052;-54
2021/07/31 06:32:13;;;;;;;1.55;1.45;;;20.20;60.40;;;;;;1491443;39;20104;-56
2021/07/31 06:33:34;;;;;;;1.92;1.67;;;20.20;60.60;;;;;;1492619;39;20423;-54
2021/07/31 06:34:55;;;;;;;2.40;1.60;;;20.20;60.70;;;;;;1491178;39;20066;-56
2021/07/31 06:36:19;;;;;;;2.35;1.70;;;20.20;60.90;;;;;;1490995;39;20078;-56
2021/07/31 06:37:40;;;;;;;2.58;2.00;;;20.30;60.80;;;;;;1491878;39;20039;-55
2021/07/31 06:39:03;;;;;;;2.92;1.55;;;20.30;60.80;;;;;;1489904;39;20423;-57
2021/07/31 06:40:24;;;;;;;2.63;1.55;;;20.30;60.80;;;;;;1489171;39;20349;-54
2021/07/31 06:41:45;;;;;;;2.95;1.73;;;20.30;60.70;;;;;;1490637;39;20038;-55
2021/07/31 06:43:06;;;;;;;3.33;2.08;;;20.30;60.70;;;;;;1490065;39;20035;-56
2021/07/31 06:44:27;;;;;;;4.00;2.03;;;20.40;60.70;;;;;;1490830;39;20047;-54
2021/07/31 06:45:48;;;;;;;2.70;1.60;;;20.40;60.70;;;;;;1485383;39;20065;-56
2021/07/31 06:47:09;;;;;;;2.13;1.58;;;20.40;60.70;;;;;;1487021;39;20122;-56
2021/07/31 06:48:30;;;;;;;4.30;1.67;;;20.40;60.70;;;;;;1490967;39;20032;-55
2021/07/31 06:49:50;;;;;;;2.13;1.63;;;20.40;60.70;;;;;;1490166;39;20029;-56
2021/07/31 06:51:11;;;;;;;4.18;2.03;;;20.50;60.90;;;;;;1491094;39;20044;-55
2021/07/31 06:52:32;;;;;;;1.77;1.60;;;20.50;60.80;;;;;;1492722;39;20028;-55
2021/07/31 06:53:53;;;;;;;3.78;1.75;;;20.50;60.90;;;;;;1491531;39;20308;-55
2021/07/31 06:55:17;;;;;;;2.25;1.60;;;20.50;60.90;;;;;;1490837;39;20023;-54
2021/07/31 06:56:38;;;;;;;5.75;1.98;;;20.50;60.70;;;;;;1492187;39;20034;-56
2021/07/31 06:57:59;;;;;;;3.25;1.60;;;20.60;60.60;;;;;;1491382;39;20043;-54
2021/07/31 06:59:20;;;;;;;2.33;1.50;;;20.60;60.60;;;;;;1491876;39;20357;-54
2021/07/31 07:00:41;;;;;;;4.47;1.77;;;20.60;60.60;;;;;;1492284;39;20047;-55
2021/07/31 07:02:02;;;;;;;2.70;1.80;;;20.60;60.70;;;;;;1493353;39;20041;-56
2021/07/31 07:03:24;;;;;;;3.20;2.15;;;20.70;60.70;;;;;;1488806;39;20027;-54
2021/07/31 07:04:45;;;;;;;2.25;1.60;;;20.70;60.70;;;;;;1491494;39;20043;-56